Hamlin, West Virginia
Current Conditions -  °F | °C
As of 8:51 AM on Saturday 22 Nov 2014 (Local Time) from KHTS Reporting Station
Scattered Clouds Scattered Clouds  
Wind Chill: 28°   Ceiling: Unl
Heat Index: 28°   Visibility: 8mi
Dew Point: 20°   Wind: 0mph
Humidity: 72%   Direction: NA
Pressure: 30.36"   Gusts: NA
Location:  38.28°N, 82.1°W
Report Text: KHTS 221351Z 00000KT 8SM SCT060 M02/M07 A3036 RMK AO2 SLP288 T10221067
Loading
Personal Weather Stations






























Interactive Weather Map New forecast layout! Learn more

10-Day Weather Forecast

Advertisements
Track Severe Weather on mobile